Latest Weather Observations for Lajamanu

IDD60801

Issued at 5:11 am CST Thursday 6 October 2022 (issued every 10 minutes, with the page automatically refreshed every 10 minutes)

About weather observations | Map of weather stations | Latest weather observations for NT | Other Formats
Station Details ID: 014829 Name: LAJAMANU AIRPORT Lat: -18.33 Lon: 130.64 Height: 315.6 m
Data from the previous 72 hours. | See also: Recent months at Lajamanu
Date/Time
CST
Temp
°C
App
Temp
°C
Dew
Point
°C
Rel
Hum
%
Delta-T
°C
Wind Press
QNH
hPa
Press
MSL
hPa
Rain since
9am
mm
Dir  Spd
km/h
Gust
km/h
Spd
kts
Gust
kts
06/05:00am 23.6 25.2 19.1 76 2.9 NNW 9 13 5 7 1012.0 1009.8 0.2
06/04:30am 23.7 25.4 19.4 77 2.8 NW 9 13 5 7 1011.8 1009.6 0.2
06/04:00am 23.9 25.6 19.4 76 2.9 NNW 9 13 5 7 1011.6 1009.4 0.2
06/03:30am 24.2 25.4 19.1 73 3.3 N 11 17 6 9 1011.6 1009.4 0.2
06/03:00am 24.3 24.9 19.4 74 3.2 N 15 22 8 12 1011.7 1009.5 0.2
06/02:30am 24.5 25.9 19.6 74 3.2 N 11 19 6 10 1011.9 1009.7 0.2
06/02:00am 24.5 25.6 19.6 74 3.2 NNE 13 15 7 8 1011.9 1009.7 0.2
06/01:30am 25.1 26.9 19.5 71 3.7 NNE 9 13 5 7 1012.0 1009.8 0.2
06/01:00am 25.5 26.5 19.4 69 4.0 N 13 19 7 10 1012.2 1010.0 0.2
06/12:30am 25.9 26.7 19.1 66 4.4 N 13 20 7 11 1012.5 1010.3 0.2
06/12:00am 26.3 26.6 18.7 63 4.9 N 15 17 8 9 1012.6 1010.4 0.2
 
Date/Time
CST
Temp
°C
App
Temp
°C
Dew
Point
°C
Rel
Hum
%
Delta-T
°C
Wind Press
QNH
hPa
Press
MSL
hPa
Rain since
9am
mm
Dir  Spd
km/h
Gust
km/h
Spd
kts
Gust
kts
05/11:30pm 26.6 26.8 18.5 61 5.2 N 15 20 8 11 1013.0 1010.7 0.2
05/11:00pm 27.1 27.1 18.1 58 5.8 N 15 20 8 11 1013.1 1010.8 0.2
05/10:30pm 27.7 27.7 18.1 56 6.2 N 15 20 8 11 1012.8 1010.5 0.2
05/10:00pm 27.9 28.5 17.7 53 6.5 N 11 15 6 8 1012.8 1010.5 0.2
05/09:30pm 28.3 28.9 17.8 53 6.7 N 11 15 6 8 1012.4 1010.2 0.2
05/09:00pm 29.6 31.1 18.1 50 7.4 ESE 7 7 4 4 1012.1 1009.9 0.2
05/08:30pm 29.9 31.9 18.7 51 7.3 E 6 7 3 4 1011.7 1009.5 0.2
05/08:00pm 30.3 31.8 17.7 46 8.1 ESE 6 7 3 4 1011.2 1009.0 0.2
05/07:30pm 31.0 33.2 16.6 42 9.2 CALM 0 0 0 0 1010.8 1008.6 0.2
05/07:00pm 32.0 32.8 15.9 38 10.2 SSE 6 7 3 4 1010.3 1008.1 0.2
05/06:30pm 32.9 33.2 15.0 34 11.2 S 7 9 4 5 1010.0 1007.7 0.2
05/06:00pm 33.8 34.0 14.8 32 11.9 SSW 7 11 4 6 1009.7 1007.4 0.2
05/05:30pm 33.8 33.6 14.8 32 11.9 SSE 9 13 5 7 1009.7 1007.4 0.2
05/05:00pm 33.9 34.5 15.4 33 11.7 SSE 6 13 3 7 1009.7 1007.4 0.2
05/04:30pm 33.6 33.7 15.6 34 11.4 N 9 13 5 7 1009.7 1007.4 0.2
05/04:00pm 33.6 33.7 15.6 34 11.4 S 9 15 5 8 1009.8 1007.5 0.2
05/03:30pm 33.8 33.6 15.7 33 11.5 SW 11 15 6 8 1009.9 1007.6 0.2
05/03:00pm 33.0 34.0 16.4 37 10.6 N 6 11 3 6 1010.1 1007.8 0.2
05/02:30pm 33.2 34.1 16.5 36 10.7 S 7 15 4 8 1010.3 1008.1 0.2
05/02:00pm 33.0 32.5 15.9 35 10.8 S 13 20 7 11 1010.7 1008.5 0.2
05/01:30pm 32.1 32.2 16.4 39 10.0 SSE 11 20 6 11 1011.3 1009.1 0.2
05/01:00pm 31.7 33.1 18.7 46 8.5 SSE 9 19 5 10 1011.8 1009.6 0.2
05/12:30pm 31.1 31.4 17.8 45 8.6 SSE 13 20 7 11 1012.6 1010.4 0.2
05/12:00pm 29.9 30.9 18.7 51 7.3 SSE 11 20 6 11 1013.4 1011.2 0.2
05/11:30am 29.8 31.7 19.8 55 6.6 ESE 9 17 5 9 1013.6 1011.4 0.2
05/11:00am 28.7 30.0 19.3 56 6.2 SSE 11 20 6 11 1014.1 1011.9 0.2
05/10:30am 28.1 30.3 19.6 60 5.6 SSE 7 13 4 7 1014.5 1012.3 0.2
05/10:00am 26.9 29.1 19.5 64 4.8 ESE 7 13 4 7 1014.6 1012.4 0.2
05/09:30am 26.6 29.8 20.4 68 4.1 NE 4 11 2 6 1014.7 1012.5 0.2
05/09:00am 25.4 27.5 20.2 73 3.4 ENE 9 15 5 8 1014.7 1012.5 11.4
05/08:30am 24.4 25.8 20.3 78 2.7 ENE 13 17 7 9 1014.3 1012.1 11.4
05/08:00am 23.7 24.9 20.0 80 2.4 E 13 17 7 9 1014.0 1011.8 11.4
05/07:30am 23.0 25.7 20.3 85 1.8 E 6 9 3 5 1013.8 1011.6 11.4
05/07:00am 21.7 25.3 19.8 89 1.2 CALM 0 0 0 0 1013.5 1011.3 11.4
05/06:30am 21.4 23.2 19.5 89 1.2 E 9 11 5 6 1012.8 1010.5 11.4
05/06:00am 21.5 23.3 19.6 89 1.2 ENE 9 13 5 7 1012.3 1010.1 11.4
05/05:30am 21.7 23.2 19.8 89 1.2 ENE 11 15 6 8 1011.9 1009.7 11.4
05/05:00am 21.7 23.6 19.8 89 1.2 E 9 13 5 7 1012.0 1009.8 11.4
05/04:30am 21.9 23.8 19.8 88 1.4 E 9 13 5 7 1012.0 1009.8 11.4
05/04:00am 22.0 24.2 19.7 87 1.5 SE 7 9 4 5 1012.1 1009.9 11.4
05/03:30am 22.1 24.3 19.6 86 1.6 ENE 7 9 4 5 1011.9 1009.7 11.4
05/03:00am 22.2 23.9 19.4 84 1.8 N 9 11 5 6 1012.2 1010.0 11.4
05/02:30am 22.1 24.5 19.6 86 1.6 ENE 6 11 3 6 1012.4 1010.2 11.4
05/02:00am 21.8 23.3 18.8 83 1.9 ESE 9 15 5 8 1012.1 1009.9 11.4
05/01:31am 21.5 22.5 19.4 88 1.4 NE 13 17 7 9 1012.2 1010.0 11.4
05/01:30am 21.5 22.4 19.2 87 1.5 NE 13 17 7 9 1012.2 1010.0 11.4
05/01:00am 21.5 22.1 18.7 84 1.8 SSW 13 24 7 13 1012.6 1010.4 10.8
05/12:48am 23.6 23.4 19.3 77 2.8 NW 19 46 10 25 1013.6 1011.4 6.8
05/12:47am 23.8 24.0 19.3 76 2.9 NW 17 46 9 25 1013.6 1011.4 6.6
05/12:36am 23.9 26.3 21.6 87 1.5 NE 11 13 6 7 1011.5 1009.3 5.0
05/12:30am 23.9 26.7 21.6 87 1.5 ENE 9 13 5 7 1011.6 1009.4 5.0
05/12:00am 23.7 27.6 21.2 86 1.7 SSE 2 7 1 4 1011.7 1009.5 5.0
 
Date/Time
CST
Temp
°C
App
Temp
°C
Dew
Point
°C
Rel
Hum
%
Delta-T
°C
Wind Press
QNH
hPa
Press
MSL
hPa
Rain since
9am
mm
Dir  Spd
km/h
Gust
km/h
Spd
kts
Gust
kts
04/11:30pm 23.7 28.1 21.4 87 1.5 CALM 0 0 0 0 1012.0 1009.8 5.0
04/11:00pm 23.9 28.4 21.6 87 1.5 CALM 0 0 0 0 1012.2 1010.0 5.0
04/10:30pm 23.9 27.9 21.4 86 1.7 SSE 2 9 1 5 1012.2 1010.0 5.0
04/10:00pm 24.2 28.5 21.9 87 1.5 NNW 2 13 1 7 1012.2 1010.0 5.0
04/09:30pm 24.3 27.7 21.6 85 1.8 NNE 6 9 3 5 1012.0 1009.8 5.0
04/09:00pm 23.9 26.9 20.8 83 2.1 S 6 9 3 5 1011.6 1009.4 5.0
04/08:30pm 23.7 27.1 21.0 85 1.8 SE 4 11 2 6 1011.1 1008.9 5.0
04/08:09pm 23.9 26.0 21.0 84 1.9 SSE 11 19 6 10 1011.3 1009.1 5.0
04/08:00pm 23.7 25.9 21.2 86 1.7 ENE 11 19 6 10 1010.6 1008.4 5.0
04/07:30pm 23.5 25.4 20.6 84 1.9 NNE 11 20 6 11 1010.5 1008.3 5.0
04/07:05pm 26.6 26.1 17.7 58 5.7 NW 17 56 9 30 1010.0 1007.7 0.0
04/07:00pm 31.6 31.4 14.7 36 10.5 WSW 9 15 5 8 1009.1 1006.9 0.0
04/06:51pm 31.5 30.4 14.2 35 10.6 WSW 13 17 7 9 1008.8 1006.6 0.0
04/06:30pm 31.8 31.0 14.0 34 11.0 WSW 11 15 6 8 1008.6 1006.4 0.0
04/06:00pm 32.9 31.2 13.5 30 11.9 NW 15 22 8 12 1008.4 1006.2 0.0
04/05:30pm 33.5 31.8 13.5 29 12.3 W 15 24 8 13 1008.4 1006.2 0.0
04/05:00pm 33.6 32.4 14.1 30 12.1 W 13 20 7 11 1008.1 1005.9 0.0
04/04:30pm 33.0 32.1 13.6 31 11.9 W 11 26 6 14 1008.1 1005.9 0.0
04/04:00pm 32.3 31.1 14.0 33 11.3 W 13 22 7 12 1008.3 1006.1 0.0
04/03:30pm 32.7 31.4 13.8 31 11.6 WSW 13 20 7 11 1008.5 1006.3 0.0
04/03:00pm 33.4 31.7 13.5 30 12.2 WNW 15 26 8 14 1008.9 1006.7 0.0
04/02:30pm 32.9 31.4 13.0 29 12.1 W 13 20 7 11 1009.5 1007.2 0.0
04/02:00pm 32.0 30.3 13.7 33 11.2 SW 15 24 8 13 1010.2 1007.9 0.0
04/01:30pm 31.9 31.9 14.1 34 11.0 WSW 7 11 4 6 1010.6 1008.4 0.0
04/01:00pm 32.1 31.4 14.3 34 11.0 SSE 11 22 6 12 1011.1 1008.9 0.0
04/12:30pm 31.7 30.0 13.5 33 11.1 WSW 15 22 8 12 1011.5 1009.3 0.0
04/12:00pm 30.8 29.7 13.1 34 10.7 WSW 11 19 6 10 1012.0 1009.8 0.0
04/11:30am 30.2 29.4 13.9 37 9.9 WSW 11 19 6 10 1012.3 1010.1 0.0
04/11:00am 29.5 28.1 15.6 43 8.7 WSW 17 22 9 12 1012.8 1010.5 0.0
04/10:30am 29.2 29.5 16.0 44 8.3 WSW 9 20 5 11 1013.0 1010.7 0.0
04/10:00am 27.9 28.2 17.1 51 6.9 WSW 11 20 6 11 1013.0 1010.7 0.0
04/09:30am 25.9 26.6 17.0 58 5.6 NNW 9 15 5 8 1013.2 1011.0 0.0
04/09:00am 24.9 26.2 17.6 64 4.6 NNW 7 13 4 7 1013.2 1011.0 0.0
04/08:30am 24.0 25.9 17.7 68 4.0 N 4 9 2 5 1013.0 1010.7 0.0
04/08:00am 23.1 25.4 17.8 72 3.3 NW 2 6 1 3 1012.5 1010.3 0.0
04/07:30am 22.3 23.8 17.7 75 2.9 S 6 7 3 4 1011.9 1009.7 0.0
04/07:00am 21.8 24.5 17.8 78 2.5 CALM 0 0 0 0 1011.6 1009.4 0.0
04/06:30am 21.0 23.4 17.0 78 2.5 CALM 0 0 0 0 1011.2 1009.0 0.0
04/06:00am 21.3 23.9 17.5 79 2.4 CALM 0 0 0 0 1010.9 1008.7 0.0
04/05:30am 21.5 23.6 17.3 77 2.6 SW 2 7 1 4 1010.8 1008.6 0.0
04/05:00am 21.7 22.6 17.5 77 2.6 SSW 9 13 5 7 1010.6 1008.4 0.0
04/04:30am 21.9 22.9 17.7 77 2.6 SW 9 13 5 7 1010.8 1008.6 0.0
04/04:00am 22.2 22.8 17.6 75 2.9 SSW 11 17 6 9 1010.8 1008.6 0.0
04/03:30am 22.3 21.8 17.7 75 2.9 SSW 17 24 9 13 1010.8 1008.6 0.0
04/03:00am 23.0 21.5 18.5 76 2.9 SW 24 37 13 20 1011.2 1009.0 0.0
04/02:30am 23.0 23.3 17.9 73 3.2 SW 13 20 7 11 1011.3 1009.1 0.0
04/02:00am 22.2 23.1 16.5 70 3.5 SSW 7 9 4 5 1011.3 1009.1 0.0
04/01:30am 22.0 22.2 16.7 72 3.3 S 11 17 6 9 1010.9 1008.7 0.0
04/01:00am 22.5 21.8 17.4 73 3.2 SSW 17 22 9 12 1010.8 1008.6 0.0
04/12:42am 22.5 19.7 17.2 72 3.3 SW 28 41 15 22 1011.1 1008.9 0.0
04/12:32am 24.1 19.3 16.6 63 4.7 SW 37 57 20 31 1011.2 1009.0 0.0
04/12:30am 24.5 19.5 16.2 60 5.1 SW 37 57 20 31 1011.2 1009.0 0.0
04/12:29am 25.0 20.5 16.4 59 5.3 SW 35 57 19 31 1011.2 1009.0 0.0
04/12:24am 26.6 24.2 16.5 54 6.3 SW 24 54 13 29 1011.1 1008.9 0.0
04/12:00am 27.0 25.5 15.4 49 7.2 SSW 17 24 9 13 1010.3 1008.1 0.0
 
Date/Time
CST
Temp
°C
App
Temp
°C
Dew
Point
°C
Rel
Hum
%
Delta-T
°C
Wind Press
QNH
hPa
Press
MSL
hPa
Rain since
9am
mm
Dir  Spd
km/h
Gust
km/h
Spd
kts
Gust
kts
03/11:30pm 27.8 25.6 14.4 43 8.2 SSW 19 26 10 14 1010.2 1007.9 0.0
03/11:00pm 27.9 27.6 12.7 39 9.0 NW 6 9 3 5 1009.6 1007.3 0.0
03/10:30pm 28.8 27.4 12.2 35 9.8 NNW 11 13 6 7 1009.1 1006.9 0.0
03/10:00pm 29.1 28.0 12.1 35 10.0 NNW 9 13 5 7 1009.0 1006.8 0.0
03/09:30pm 29.2 28.4 11.7 34 10.3 WNW 7 9 4 5 1009.0 1006.8 0.0
03/09:00pm 30.2 29.0 11.7 32 10.9 NW 9 11 5 6 1008.8 1006.6 0.0
03/08:30pm 31.2 29.6 11.6 30 11.6 NW 11 15 6 8 1008.5 1006.3 0.0
03/08:00pm 32.0 29.9 11.2 28 12.3 NW 13 19 7 10 1008.3 1006.1 0.0
03/07:30pm 32.6 30.3 10.6 26 12.9 NW 13 19 7 10 1007.9 1005.7 0.0
03/07:00pm 33.4 30.2 10.1 24 13.6 NW 17 24 9 13 1007.4 1005.1 0.0
03/06:30pm 34.2 31.0 10.1 23 14.1 NW 17 30 9 16 1007.0 1004.7 0.0
03/06:00pm 34.7 31.3 9.2 21 14.8 WNW 17 26 9 14 1006.5 1004.2 0.0
03/05:30pm 35.5 32.3 9.8 21 15.1 NW 17 28 9 15 1006.3 1004.0 0.0
03/05:00pm 35.3 30.7 9.7 21 14.9 NW 24 43 13 23 1006.2 1003.9 0.0
03/04:30pm 35.8 31.5 9.3 20 15.5 NW 22 35 12 19 1005.9 1003.7 0.0
03/04:00pm 35.9 32.0 9.4 20 15.4 NNW 20 30 11 16 1005.9 1003.7 0.0
03/03:30pm 35.9 32.6 10.9 22 14.9 N 19 32 10 17 1006.0 1003.8 0.0
03/03:00pm 36.4 32.4 10.6 21 15.4 NNW 22 32 12 17 1006.4 1004.1 0.0
03/02:30pm 36.5 32.9 10.6 21 15.4 NNW 20 32 11 17 1006.8 1004.5 0.0
03/02:00pm 35.7 32.5 12.0 24 14.3 N 20 30 11 16 1007.2 1004.9 0.0
03/01:31pm 35.5 30.6 11.2 23 14.5 NNW 28 46 15 25 1007.7 1005.5 0.0
03/01:30pm 35.1 30.6 11.5 24 14.2 NNW 26 46 14 25 1007.7 1005.5 0.0
03/01:00pm 34.7 30.5 11.2 24 14.0 NW 24 35 13 19 1008.5 1006.3 0.0
03/12:30pm 34.2 30.1 11.4 25 13.6 NW 24 35 13 19 1009.1 1006.9 0.0
03/12:00pm 33.6 30.3 11.5 26 13.2 NW 20 32 11 17 1009.8 1007.5 0.0
03/11:30am 32.1 30.1 12.8 30 11.7 NNW 15 28 8 15 1010.4 1008.2 0.0
03/11:00am 31.7 29.4 13.0 32 11.3 NW 17 26 9 14 1010.8 1008.6 0.0
03/10:30am 31.1 29.3 13.4 34 10.8 WNW 15 20 8 11 1011.2 1009.0 0.0
03/10:00am 29.2 28.2 14.6 41 9.0 NW 13 19 7 10 1011.5 1009.3 0.0
03/09:30am 28.0 27.0 15.6 46 7.7 NW 15 20 8 11 1011.7 1009.5 0.0
03/09:00am 26.5 26.1 16.1 52 6.5 NW 13 17 7 9 1011.7 1009.5 0.0
03/08:30am 24.9 24.8 16.9 61 5.0 NW 13 17 7 9 1011.5 1009.3 0.0
03/08:00am 23.6 24.4 16.4 64 4.5 NW 7 15 4 8 1011.4 1009.2 0.0
03/07:30am 21.8 24.1 16.7 73 3.2 CALM 0 0 0 0 1011.1 1008.9 0.0
03/07:00am 20.0 22.2 16.6 81 2.1 CALM 0 0 0 0 1010.8 1008.6 0.0
03/06:30am 19.1 21.1 16.1 83 1.8 CALM 0 0 0 0 1010.5 1008.3 0.0
03/06:00am 19.4 21.5 16.2 82 1.9 CALM 0 0 0 0 1010.4 1008.2 0.0
03/05:30am 19.8 21.2 16.3 80 2.1 NW 4 7 2 4 1010.2 1007.9 0.0

Other formats

Comma delimited format used in spreadsheet applications
http://www.bom.gov.au/fwo/IDD60801/IDD60801.94231.axf

JavaScript Object Notation format (JSON) in row-major order
http://www.bom.gov.au/fwo/IDD60801/IDD60801.94231.json

Data quality

Most of these data are generated automatically and are frequently updated. Quality checks on data are not normally performed. It is possible for incorrect values to appear. Refer to information at About Latest Weather Observations and please check the disclaimer before using these data.